• Join FlightAware (Why Join?)
  • Login
  • US Flag 
02:05PM EST


 

Airport Tracker/Info


-or-


 

Live Flight TrackerFlight Track Log ✈ VOZ1693 ✈ 23-May-2013 ✈ YSCB / CBR - YBCG / OOL

Flight Track Log - Related Links

Times and Time Zones

All times are in EDT time to prevent confusion due to time zone crossing. See the VOZ1693 flight status page for this flight to view local times or setup timezone preferences in your user account.

Time Position Orientation Groundspeed Altitude Reporting Facility
EDT Latitude Longitude Course Direction KTS MPH feet Rate Location/Type
06:41AM -35.3060 149.1910 50° Northeast 2 2  Level FlightAware
06:45AM -35.3050 149.1920 39° Northeast 16 18 120 Level FlightAware
06:46AM -35.3030 149.1920 360° North 14 16 180 Level FlightAware
06:46AM -35.3020 149.1930 39° Northeast 7 8 180 Level FlightAware
06:48AM -35.3020 149.1940 90° East 10 12 240 Level FlightAware
06:49AM -35.3020 149.1960 90° East 9 10 300 Level FlightAware
06:49AM -35.3010 149.1960 360° North 13 15 300 Level FlightAware
06:50AM -35.2990 149.1960 360° North 22 25 360 Level FlightAware
06:51AM -35.2940 149.1960 360° North 22 25 420 Level FlightAware
06:51AM -35.2920 149.1960 360° North 19 22 480 Level FlightAware
06:51AM -35.2910 149.1960 360° North 9 10 540 Level FlightAware
06:53AM -35.2910 149.1950 270° West 7 8 600 Level FlightAware
06:53AM -35.2910 149.1940 270° West 1 1 1,260 Level FlightAware
06:54AM -35.2960 149.1940 180° South 98 113 1,980 Level FlightAware
06:54AM -35.3120 149.1940 180° South 160 184 2,000 3,900 Climbing FlightAware
06:55AM -35.3340 149.1930 182° South 159 183 3,600 2,400 Climbing FlightAware
06:55AM -35.3550 149.1890 189° South 200 230 4,200 2,040 Climbing FlightAware
06:56AM -35.3858 149.1807 189° South 221 254 5,400 1,980 Climbing Aus ATC (RADAR)
06:56AM -35.3850 149.1810 189° South 238 274 5,200 1,800 Descending FlightAware
06:56AM -35.4200 149.1750 188° South 261 300 6,400 2,700 Climbing FlightAware
06:57AM -35.4300 149.1770 171° South 260 299 7,000 3,360 Climbing FlightAware
06:57AM -35.4480 149.1880 154° Southeast 259 298 7,800 3,000 Climbing FlightAware
06:57AM -35.4590 149.2040 130° Southeast 261 300 8,500 2,760 Climbing FlightAware
06:57AM -35.4650 149.2240 110° East 267 307 9,200 3,060 Climbing FlightAware
06:58AM -35.4608 149.2644 110° East 264 304 10,400 2,400 Climbing Aus ATC (RADAR)
06:58AM -35.4600 149.2640 110° East 284 327 10,200 300 Descending FlightAware
06:58AM -35.4480 149.2830 52° Northeast 308 354 10,500 1,200 Climbing FlightAware
06:58AM -35.4280 149.2950 26° Northeast 328 377 10,800 2,760 Climbing FlightAware
06:59AM -35.3722 149.3002 26° Northeast 332 382 12,700 2,760 Climbing Aus ATC (RADAR)
06:59AM -35.3580 149.3040 26° Northeast 347 399 12,900 2,880 Climbing FlightAware
06:59AM -35.3162 149.3113 26° Northeast 350 403 14,400 3,120 Climbing Aus ATC (RADAR)
07:00AM -35.2960 149.3130 26° Northeast 360 414 15,000 2,520 Climbing FlightAware
07:00AM -35.2680 149.3060 348° North 365 420 15,800 3,720 Climbing FlightAware
07:00AM -35.2360 149.2875 348° North 359 413 17,000 2,820 Climbing Aus ATC (RADAR)
07:01AM -35.2080 149.2710 348° North 377 434 17,700 1,800 Climbing FlightAware
07:01AM -35.1330 149.2250 333° Northwest 410 472 19,100 1,860 Climbing FlightAware
07:02AM -35.0620 149.1830 334° Northwest 430 495 20,400 2,100 Climbing FlightAware
07:02AM -35.0071 149.1494 334° Northwest 430 495 21,500 1,500 Climbing Aus ATC (RADAR)
07:03AM -34.9930 149.1410 334° Northwest 441 507 21,400 660 Descending FlightAware
07:03AM -34.9423 149.1104 334° Northwest 436 502 21,900 720 Climbing Aus ATC (RADAR)
07:03AM -34.9160 149.0940 334° Northwest 441 507 21,900 720 Level FlightAware
07:04AM -34.8689 149.0664 334° Northwest 438 504 22,400 480 Climbing Aus ATC (RADAR)
07:04AM -34.8340 149.0520 334° Northwest 449 517 22,300 240 Descending FlightAware
07:05AM -34.7490 149.0620 North 449 517 22,700 540 Climbing FlightAware
07:05AM -34.6570 149.0850 12° North 449 517 23,100 840 Climbing FlightAware
07:06AM -34.5946 149.0997 12° North 451 519 23,700 720 Climbing Aus ATC (RADAR)
07:06AM -34.5770 149.1050 12° North 455 524 23,600 600 Descending FlightAware
07:07AM -34.4820 149.1280 11° North 458 527 24,300 1,320 Climbing FlightAware
07:08AM -34.3990 149.1490 12° North 466 536 25,500 1,860 Climbing FlightAware
07:08AM -34.3120 149.1703 12° North 470 541 26,700 1,680 Climbing Aus ATC (RADAR)
07:08AM -34.3020 149.1730 12° North 473 544 26,800 3,420 Climbing FlightAware
07:09AM -34.2246 149.1918 12° North 452 520 29,100 3,600 Climbing Aus ATC (RADAR)
07:09AM -34.2170 149.1940 12° North 447 514 29,200 2,880 Climbing FlightAware
07:09AM -34.1745 149.2043 12° North 437 503 30,300 1,800 Climbing Aus ATC (RADAR)
07:10AM -34.1440 149.2120 12° North 450 518 30,400 960 Climbing FlightAware
07:10AM -34.0440 149.2360 11° North 460 529 31,400 1,560 Climbing FlightAware
07:11AM -34.0024 149.2456 11° North 459 528 32,000 1,920 Climbing Aus ATC (RADAR)
07:11AM -33.9600 149.2560 11° North 454 522 32,700 2,160 Climbing FlightAware
07:12AM -33.8796 149.2761 11° North 449 517 34,200 1,860 Climbing Aus ATC (RADAR)
07:12AM -33.8690 149.2780 11° North 448 516 34,100 1,200 Descending FlightAware
07:12AM -33.7881 149.2985 11° North 449 517 35,100 1,320 Climbing Aus ATC (RADAR)
07:12AM -33.7900 149.2980 11° North 449 517 35,000 1,320 Descending FlightAware
07:13AM -33.7170 149.3161 11° North 450 518 35,900 1,320 Climbing Aus ATC (RADAR)
07:13AM -33.6960 149.3210 11° North 451 519 36,000 1,200 Climbing FlightAware
07:13AM -33.6557 149.3311 11° North 451 519 36,500 1,200 Climbing Aus ATC (RADAR)
07:14AM -33.6140 149.3410 11° North 448 516 36,800 840 Climbing FlightAware
07:15AM -33.5330 149.3610 12° North 453 521 37,400 960 Climbing FlightAware
07:15AM -33.4500 149.3810 11° North 454 522 38,100 1,080 Climbing FlightAware
07:16AM -33.3585 149.4032 11° North 454 522 38,900 900 Climbing Aus ATC (RADAR)
07:16AM -33.3660 149.4010 11° North 453 521 38,800 480 Descending FlightAware
07:16AM -33.3074 149.4149 11° North 450 518 39,100 300 Climbing Aus ATC (RADAR)
07:17AM -33.2820 149.4210 11° North 448 516 39,000  Descending FlightAware
07:17AM -33.2362 149.4321 11° North 450 518 39,100  Climbing Aus ATC (RADAR)
07:17AM -33.1960 149.4420 11° North 448 516 39,000  Descending FlightAware
07:18AM -33.1549 149.4520 11° North 449 517 39,100  Climbing Aus ATC (RADAR)
07:18AM -33.1150 149.4620 11° North 450 518 39,000 -120 Descending FlightAware
07:19AM -33.0110 149.4870 11° North 447 514 39,000 60 Level FlightAware
07:19AM -32.9416 149.5033 11° North 447 514 39,100  Climbing Aus ATC (RADAR)
07:19AM -32.9310 149.5060 11° North 447 514 39,000  Descending FlightAware
07:20AM -32.8705 149.5203 11° North 447 514 39,100  Climbing Aus ATC (RADAR)
07:20AM -32.8640 149.5220 11° North 446 513 39,000 -120 Descending FlightAware
07:21AM -32.7790 149.5420 11° North 444 511 39,000 60 Level FlightAware
07:21AM -32.6997 149.5606 11° North 441 507 39,100  Climbing Aus ATC (RADAR)
07:22AM -32.6770 149.5660 11° North 439 505 39,000  Descending FlightAware
07:22AM -32.6399 149.5750 11° North 439 505 39,100  Climbing Aus ATC (RADAR)
07:22AM -32.5880 149.5880 11° North 432 497 39,000  Descending FlightAware
07:23AM -32.5520 149.6039 11° North 436 502 39,100  Climbing Aus ATC (RADAR)
07:23AM -32.5150 149.6320 11° North 444 511 39,000 -120 Descending FlightAware
07:24AM -32.4470 149.6890 35° Northeast 450 518 39,000 60 Level FlightAware
07:24AM -32.3897 149.7378 35° Northeast 445 512 39,100  Climbing Aus ATC (RADAR)
07:24AM -32.3740 149.7510 35° Northeast 449 517 39,000  Descending FlightAware
07:25AM -32.3305 149.7876 35° Northeast 445 512 39,100  Climbing Aus ATC (RADAR)
07:25AM -32.3030 149.8100 35° Northeast 443 510 39,000  Descending FlightAware
07:25AM -32.2712 149.8373 35° Northeast 443 510 39,100  Climbing Aus ATC (RADAR)
07:26AM -32.2310 149.8710 35° Northeast 443 510 39,000  Descending FlightAware
07:26AM -32.1696 149.9228 35° Northeast 444 511 39,100  Climbing Aus ATC (RADAR)
07:26AM -32.1580 149.9320 35° Northeast 443 510 39,000  Descending FlightAware
07:27AM -32.1271 149.9579 35° Northeast 444 511 39,100  Climbing Aus ATC (RADAR)
07:27AM -32.0930 149.9860 35° Northeast 441 507 39,000 -120 Descending FlightAware
07:28AM -32.0140 150.0510 35° Northeast 440 506 39,000  Level FlightAware
07:29AM -31.9470 150.1080 36° Northeast 438 504 39,000  Level FlightAware
07:29AM -31.8826 150.1609 36° Northeast 438 504 39,000  Level Aus ATC (RADAR)
07:29AM -31.8790 150.1640 36° Northeast 436 502 39,000  Level FlightAware
07:30AM -31.8326 150.2021 36° Northeast 435 501 39,000  Level Aus ATC (RADAR)
07:30AM -31.8110 150.2200 36° Northeast 442 509 39,000  Level FlightAware
07:30AM -31.7741 150.2509 36° Northeast 437 503 39,000  Level Aus ATC (RADAR)
07:31AM -31.7540 150.2680 36° Northeast 442 509 39,000  Level FlightAware
07:31AM -31.6822 150.3264 36° Northeast 435 501 39,000  Level Aus ATC (RADAR)
07:31AM -31.6630 150.3420 36° Northeast 434 499 39,000  Level FlightAware
07:32AM -31.5950 150.3980 35° Northeast 434 499 39,000  Level FlightAware
07:33AM -31.5280 150.4540 35° Northeast 433 498 39,000  Level FlightAware
07:33AM -31.4735 150.4981 35° Northeast 432 497 39,000  Level Aus ATC (RADAR)
07:33AM -31.4530 150.5150 35° Northeast 433 498 39,000  Level FlightAware
07:34AM -31.4153 150.5459 35° Northeast 432 497 39,000  Level Aus ATC (RADAR)
07:34AM -31.3870 150.5700 35° Northeast 433 498 39,000  Level FlightAware
07:35AM -31.3403 150.6073 35° Northeast 434 499 39,000  Level Aus ATC (RADAR)
07:35AM -31.3120 150.6300 35° Northeast 433 498 39,000  Level FlightAware
07:36AM -31.2460 150.6830 34° Northeast 434 499 39,000  Level FlightAware
07:36AM -31.1880 150.7310 35° Northeast 435 501 39,000  Level FlightAware
07:37AM -31.1224 150.7836 35° Northeast 437 503 39,000  Level Aus ATC (RADAR)
07:37AM -31.1110 150.7930 35° Northeast 435 501 39,000  Level FlightAware
07:37AM -31.0645 150.8325 35° Northeast 434 499 39,000  Level Aus ATC (RADAR)
07:38AM -31.0450 150.8470 35° Northeast 435 501 39,000  Level FlightAware
07:38AM -31.0059 150.9029 35° Northeast 442 509 39,000  Level Aus ATC (RADAR)
07:38AM -30.9940 150.9180 35° Northeast 450 518 39,000  Level FlightAware
07:39AM -30.9476 150.9736 35° Northeast 445 512 39,000  Level Aus ATC (RADAR)
07:39AM -30.9380 150.9890 35° Northeast 450 518 39,000  Level FlightAware
07:39AM -30.8895 151.0447 35° Northeast 445 512 39,000  Level Aus ATC (RADAR)
07:40AM -30.8533 151.0887 46° Northeast 443 510 39,000  Level Aus ATC (RADAR)
07:40AM -30.8770 151.0640 46° Northeast 450 518 39,000  Level FlightAware
07:40AM -30.8027 151.1506 46° Northeast 445 512 39,000  Level Aus ATC (RADAR)
07:40AM -30.8290 151.1250 46° Northeast 450 518 39,000  Level FlightAware
07:41AM -30.7378 151.2298 46° Northeast 441 507 39,000  Level Aus ATC (RADAR)
07:41AM -30.7810 151.1850 46° Northeast 450 518 39,000  Level FlightAware
07:42AM -30.6944 151.2828 46° Northeast 442 509 39,000  Level Aus ATC (RADAR)
07:42AM -30.6435 151.3439 46° Northeast 441 507 39,000  Level Aus ATC (RADAR)
07:43AM -30.5927 151.4050 46° Northeast 441 507 39,000  Level Aus ATC (RADAR)
07:43AM -30.5496 151.4579 47° Northeast 440 506 39,000  Level Aus ATC (RADAR)
07:44AM -30.4989 151.5184 46° Northeast 439 505 39,000 -120 Level Aus ATC (RADAR)
07:44AM -30.4610 151.5640 46° Northeast 39,000 -180 Level FlightAware
07:44AM -30.4482 151.5793 46° Northeast 440 506 38,900 -240 Descending Aus ATC (RADAR)
07:45AM -30.4046 151.6317 46° Northeast 441 507 38,900 120 Level Aus ATC (RADAR)
07:45AM -30.3820 151.6590 46° Northeast 456 525 39,000  Climbing FlightAware
07:45AM -30.3533 151.6929 46° Northeast 443 510 38,900  Descending Aus ATC (RADAR)
07:46AM -30.3280 151.7230 46° Northeast 457 526 39,000  Climbing FlightAware
07:46AM -30.2722 151.7896 46° Northeast 446 513 38,900  Descending Aus ATC (RADAR)
07:46AM -30.2780 151.7830 46° Northeast 457 526 39,000  Climbing FlightAware
07:47AM -30.2350 151.8329 46° Northeast 446 513 38,900  Descending Aus ATC (RADAR)
07:47AM -30.2010 151.8750 46° Northeast 461 531 39,000 60 Climbing FlightAware
07:48AM -30.1410 151.9470 46° Northeast 461 531 39,000 -120 Level FlightAware
07:49AM -30.0791 152.0188 46° Northeast 448 516 38,900  Descending Aus ATC (RADAR)
07:49AM -30.0760 152.0240 46° Northeast 462 532 39,000  Climbing FlightAware
07:49AM -30.0338 152.0708 46° Northeast 448 516 38,900  Descending Aus ATC (RADAR)
07:49AM -30.0110 152.1010 46° Northeast 462 532 39,000  Climbing FlightAware
07:50AM -29.9672 152.1511 46° Northeast 449 517 38,900  Descending Aus ATC (RADAR)
07:50AM -29.9590 152.1630 46° Northeast 462 532 39,000  Climbing FlightAware
07:50AM -29.9152 152.2127 46° Northeast 448 516 38,900  Descending Aus ATC (RADAR)
07:51AM -29.8860 152.2490 46° Northeast 459 528 39,000 60 Climbing FlightAware
07:51AM -29.8250 152.3210 46° Northeast 459 528 39,000 -120 Level FlightAware
07:52AM -29.7896 152.3613 46° Northeast 444 511 38,900  Descending Aus ATC (RADAR)
07:52AM -29.7590 152.3980 46° Northeast 456 525 39,000  Climbing FlightAware
07:53AM -29.7014 152.4654 46° Northeast 441 507 38,900  Descending Aus ATC (RADAR)
07:53AM -29.7000 152.4670 46° Northeast 454 522 39,000  Climbing FlightAware
07:53AM -29.6427 152.5336 46° Northeast 438 504 38,900  Descending Aus ATC (RADAR)
07:53AM -29.6410 152.5360 46° Northeast 452 520 39,000  Climbing FlightAware
07:54AM -29.6063 152.5761 46° Northeast 437 503 38,900  Descending Aus ATC (RADAR)
07:54AM -29.5750 152.6140 46° Northeast 452 520 39,000 -300 Climbing FlightAware
07:55AM -29.5170 152.6810 45° Northeast 453 521 38,600 -1,620 Descending FlightAware
07:55AM -29.4664 152.7378 45° Northeast 432 497 37,100 -2,580 Descending Aus ATC (RADAR)
07:56AM -29.4590 152.7490 45° Northeast 453 521 36,900 -2,880 Descending FlightAware
07:56AM -29.3928 152.8245 45° Northeast 433 498 34,700 -2,940 Descending Aus ATC (RADAR)
07:56AM -29.3920 152.8280 45° Northeast 462 532 34,700 -2,940 Level FlightAware
07:57AM -29.3405 152.8866 45° Northeast 440 506 33,000 -3,120 Descending Aus ATC (RADAR)
07:57AM -29.3230 152.9070 45° Northeast 463 533 32,400 -3,120 Descending FlightAware
07:57AM -29.2881 152.9475 45° Northeast 441 507 31,200 -2,580 Descending Aus ATC (RADAR)
07:58AM -29.2670 152.9720 45° Northeast 456 525 30,700 -2,280 Descending FlightAware
07:58AM -29.2291 153.0165 45° Northeast 435 501 29,700 -2,280 Descending Aus ATC (RADAR)
07:58AM -29.2040 153.0450 45° Northeast 446 513 29,200 -2,340 Descending FlightAware
07:59AM -29.1505 153.1094 45° Northeast 423 487 27,600 -2,400 Descending Aus ATC (RADAR)
07:59AM -29.1400 153.1200 45° Northeast 434 499 27,400 -2,280 Descending FlightAware
08:00AM -29.0875 153.1817 45° Northeast 410 472 25,900 -2,100 Descending Aus ATC (RADAR)
08:00AM -29.0860 153.1810 45° Northeast 425 489 26,000 -2,100 Climbing FlightAware
08:00AM -29.0601 153.2133 45° Northeast 405 466 25,200 -2,160 Descending Aus ATC (RADAR)
08:01AM -29.0270 153.2490 45° Northeast 414 476 24,400 -2,040 Descending FlightAware
08:01AM -28.9710 153.3130 45° Northeast 398 458 22,900 -2,340 Descending FlightAware
08:02AM -28.9440 153.3396 45° Northeast 383 441 22,200 -2,100 Descending Aus ATC (RADAR)
08:02AM -28.9170 153.3750 45° Northeast 393 452 21,500 -2,100 Descending FlightAware
08:03AM -28.8689 153.4297 45° Northeast 371 427 20,100 -2,040 Descending Aus ATC (RADAR)
08:03AM -28.8600 153.4410 45° Northeast 383 441 20,000 -1,800 Descending FlightAware
08:03AM -28.8030 153.4810 32° Northeast 356 410 18,700 -2,040 Descending FlightAware
08:04AM -28.7420 153.5080 21° North 348 400 17,300 -2,100 Descending FlightAware
08:05AM -28.6750 153.5380 21° North 341 392 15,800 -1,980 Descending FlightAware
08:05AM -28.6160 153.5640 21° North 335 386 14,500 -1,920 Descending FlightAware
08:06AM -28.5510 153.5930 21° North 329 379 13,100 -1,860 Descending FlightAware
08:07AM -28.4980 153.6090 15° North 320 368 11,900 -1,920 Descending FlightAware
08:07AM -28.4350 153.6180 North 315 362 10,600 -1,320 Descending FlightAware
08:08AM -28.3790 153.6270 North 287 330 10,200 -900 Descending FlightAware
08:09AM -28.3420 153.6320 North 278 320 9,600 -1,320 Descending FlightAware
08:09AM -28.3020 153.6380 North 275 316 8,900 -1,500 Descending FlightAware
08:09AM -28.2840 153.6410 North 274 315 8,500 -1,500 Descending FlightAware
08:10AM -28.2520 153.6450 North 271 312 7,900 -1,440 Descending FlightAware
08:10AM -28.2190 153.6390 351° North 268 308 7,200 -1,440 Descending FlightAware
08:11AM -28.1790 153.6280 346° North 265 305 6,500 -1,320 Descending FlightAware
08:11AM -28.1500 153.6210 348° North 270 311 6,000 -1,140 Descending FlightAware
08:12AM -28.1130 153.6120 348° North 259 298 5,500 -960 Descending FlightAware
08:12AM -28.0960 153.6080 348° North 255 293 5,300 -900 Descending FlightAware
08:12AM -28.0680 153.6000 346° North 247 284 4,900 -900 Descending FlightAware
08:13AM -28.0340 153.5920 348° North 239 275 4,500 -840 Descending FlightAware
08:13AM -28.0200 153.5830 330° Northwest 231 266 4,300 -720 Descending FlightAware
08:13AM -28.0140 153.5740 307° West 224 258 4,200 -780 Descending FlightAware
08:14AM -28.0050 153.5430 288° West 207 238 3,800 -840 Descending FlightAware
08:14AM -28.0020 153.5140 277° West 198 228 3,400 -660 Descending FlightAware
08:15AM -28.0020 153.4930 270° West 183 211 3,200 -600 Descending FlightAware
08:15AM -28.0060 153.4730 257° West 175 201 3,000 -660 Descending FlightAware
08:16AM -28.0260 153.4540 220° Southwest 166 191 2,600 -540 Descending FlightAware
08:16AM -28.0470 153.4590 168° South 158 182 2,400 -720 Descending FlightAware
08:17AM -28.0790 153.4710 162° South 158 182 1,800 -600 Descending FlightAware
08:17AM -28.0960 153.4770 163° South 158 182 1,800  Level FlightAware
08:20AM -28.1644 153.5047 160° South  Level Estimated
08:21AM -28.1644 153.5047 156° South  Level Estimated
08:22AM -28.1644 153.5047 156° South  Level Estimated
08:23AM -28.1644 153.5047 156° South  Level Estimated
08:24AM -28.1644 153.5047 156° South  Level Estimated
08:25AM -28.1644 153.5047 156° South  Level Estimated
08:26AM -28.1644 153.5047 156° South  Level Estimated
08:27AM -28.1644 153.5047 156° South  Level Estimated
08:28AM -28.1644 153.5047 156° South  Level Estimated
08:29AM -28.1644 153.5047 156° South  Level Estimated
08:30AM -28.1644 153.5047 156° South  Level Estimated